createdAt,value
2022-09-26T00:01:43.153Z,58.11
2022-09-26T00:04:22.903Z,58.21
2022-09-26T00:06:53.167Z,58.26
2022-09-26T00:09:22.583Z,58.68
2022-09-26T00:11:51.248Z,58.27
2022-09-26T00:14:26.080Z,58.12
2022-09-26T00:16:54.951Z,58.17
2022-09-26T00:19:23.706Z,58.22
2022-09-26T00:21:52.135Z,57.78
2022-09-26T00:24:20.413Z,57.84
2022-09-26T00:26:48.672Z,58.02
2022-09-26T00:29:17.302Z,58.12
2022-09-26T00:31:47.744Z,57.90
2022-09-26T00:34:18.654Z,58.05
2022-09-26T00:36:47.020Z,58.01
2022-09-26T00:39:16.338Z,58.50
2022-09-26T00:41:45.723Z,58.43
2022-09-26T00:44:45.347Z,58.12
2022-09-26T00:47:45.165Z,57.78
2022-09-26T00:50:14.040Z,57.93
2022-09-26T00:53:20.092Z,58.23
2022-09-26T00:55:56.348Z,58.66
2022-09-26T00:58:35.892Z,58.82
2022-09-26T01:01:04.949Z,58.69
2022-09-26T01:03:36.137Z,58.83
2022-09-26T01:06:04.612Z,59.18
2022-09-26T01:08:37.085Z,59.35
2022-09-26T01:11:06.294Z,59.50
2022-09-26T01:13:36.923Z,59.55
2022-09-26T01:16:05.213Z,59.53
2022-09-26T01:18:34.922Z,59.33
2022-09-26T01:21:06.362Z,59.69
2022-09-26T01:23:49.224Z,59.90
2022-09-26T01:26:24.224Z,59.87
2022-09-26T01:29:07.539Z,60.00
2022-09-26T01:31:39.088Z,60.17
2022-09-26T01:34:36.976Z,60.23
2022-09-26T01:37:30.425Z,60.27
2022-09-26T01:40:07.937Z,60.18
2022-09-26T01:43:12.034Z,60.45
2022-09-26T01:45:53.902Z,60.75
2022-09-26T01:48:31.151Z,60.81
2022-09-26T01:51:08.316Z,61.39
2022-09-26T01:53:44.761Z,61.07
2022-09-26T01:56:17.906Z,61.04
2022-09-26T01:58:51.943Z,61.10
2022-09-26T02:01:23.444Z,60.42
2022-09-26T02:03:55.443Z,60.34
2022-09-26T02:06:28.104Z,59.87
2022-09-26T02:09:45.100Z,59.80
2022-09-26T02:12:18.273Z,59.96
2022-09-26T02:14:48.285Z,59.89
2022-09-26T02:17:23.021Z,59.68
2022-09-26T02:19:59.480Z,59.96
2022-09-26T02:22:29.906Z,60.34
2022-09-26T02:24:58.489Z,60.36
2022-09-26T02:27:27.893Z,61.01
2022-09-26T02:29:56.171Z,61.20
2022-09-26T02:32:28.441Z,61.37
2022-09-26T02:34:57.142Z,61.62
2022-09-26T02:37:25.804Z,61.83
2022-09-26T02:39:54.102Z,61.88
2022-09-26T02:42:38.192Z,61.83
2022-09-26T02:45:32.894Z,61.74
2022-09-26T02:48:16.506Z,61.73
2022-09-26T02:51:01.128Z,61.71
2022-09-26T02:53:47.746Z,61.72
2022-09-26T02:56:23.752Z,61.78
2022-09-26T02:59:07.592Z,61.29
2022-09-26T03:01:48.619Z,61.34
2022-09-26T03:04:21.112Z,61.71
2022-09-26T03:06:53.260Z,61.83
2022-09-26T03:09:23.076Z,61.62
2022-09-26T03:11:53.907Z,61.88
2022-09-26T03:14:22.137Z,62.22
2022-09-26T03:16:51.625Z,62.20
2022-09-26T03:19:32.316Z,62.11
2022-09-26T03:22:00.733Z,62.11
2022-09-26T03:24:29.421Z,62.20
2022-09-26T03:27:00.865Z,62.24
2022-09-26T03:29:29.129Z,62.09
2022-09-26T03:31:57.361Z,62.14
2022-09-26T03:34:25.985Z,62.02
2022-09-26T03:36:54.573Z,61.69
2022-09-26T03:39:23.559Z,61.65
2022-09-26T03:42:02.306Z,61.83
2022-09-26T03:44:32.012Z,61.70
2022-09-26T03:47:17.472Z,61.47
2022-09-26T03:49:49.084Z,61.34
2022-09-26T03:52:17.305Z,61.70
2022-09-26T03:54:45.980Z,61.22
2022-09-26T03:57:17.351Z,61.27
2022-09-26T03:59:58.838Z,61.40
2022-09-26T04:02:32.656Z,61.65
2022-09-26T04:05:09.453Z,61.61
2022-09-26T04:07:37.714Z,61.31
2022-09-26T04:10:06.726Z,61.41
2022-09-26T04:12:35.545Z,61.42
2022-09-26T04:15:05.478Z,61.45
2022-09-26T04:17:34.924Z,61.45
2022-09-26T04:20:04.929Z,61.30
2022-09-26T04:22:33.542Z,61.78
2022-09-26T04:25:01.700Z,61.91
2022-09-26T04:27:30.769Z,63.04
2022-09-26T04:29:58.951Z,62.68
2022-09-26T04:32:36.101Z,62.72
2022-09-26T04:35:24.441Z,62.99
2022-09-26T04:37:52.896Z,63.02
2022-09-26T04:40:21.317Z,62.97
2022-09-26T04:43:02.665Z,62.23
2022-09-26T04:45:30.868Z,62.45
2022-09-26T04:47:59.213Z,62.32
2022-09-26T04:50:27.549Z,62.27
2022-09-26T04:53:21.482Z,62.15
2022-09-26T04:56:03.579Z,61.90
2022-09-26T04:58:32.760Z,62.00
2022-09-26T05:01:06.228Z,61.96
2022-09-26T05:03:44.645Z,61.75
2022-09-26T05:06:14.270Z,61.66
2022-09-26T05:08:46.653Z,61.65
2022-09-26T05:11:16.883Z,61.40
2022-09-26T05:13:47.227Z,61.21
2022-09-26T05:16:19.591Z,61.17
2022-09-26T05:18:56.153Z,61.10
2022-09-26T05:21:26.768Z,60.96
2022-09-26T05:24:13.470Z,60.86
2022-09-26T05:26:51.063Z,61.15
2022-09-26T05:29:20.660Z,61.29
2022-09-26T05:31:59.565Z,61.31
2022-09-26T05:34:28.512Z,61.14
2022-09-26T05:36:57.084Z,61.13
2022-09-26T05:39:43.884Z,60.68
2022-09-26T05:42:12.994Z,60.54
2022-09-26T05:44:41.177Z,60.30
2022-09-26T05:47:10.407Z,60.21
2022-09-26T05:49:38.757Z,59.97
2022-09-26T05:52:06.992Z,59.77
2022-09-26T05:54:35.249Z,59.77
2022-09-26T05:57:07.214Z,59.80
2022-09-26T06:00:02.816Z,59.54
2022-09-26T06:02:56.068Z,59.76
2022-09-26T06:05:30.543Z,59.81
2022-09-26T06:08:18.451Z,60.50
2022-09-26T06:10:51.314Z,60.61
2022-09-26T06:13:21.741Z,60.84
2022-09-26T06:15:53.034Z,60.66
2022-09-26T06:18:21.908Z,60.72
2022-09-26T06:20:50.301Z,60.62
2022-09-26T06:23:18.459Z,61.15
2022-09-26T06:25:47.570Z,60.99
2022-09-26T06:28:16.137Z,61.34
2022-09-26T06:30:44.902Z,62.17
2022-09-26T06:33:16.802Z,62.32
2022-09-26T06:36:12.158Z,64.06
2022-09-26T06:38:40.805Z,63.47
2022-09-26T06:41:17.448Z,63.37
2022-09-26T06:43:46.072Z,63.21
2022-09-26T06:46:44.119Z,61.66
2022-09-26T06:49:14.706Z,61.33
2022-09-26T06:52:02.815Z,60.31
2022-09-26T06:54:31.509Z,59.47
2022-09-26T06:56:59.968Z,59.49
2022-09-26T06:59:28.617Z,59.53
2022-09-26T07:02:09.545Z,59.99
2022-09-26T07:05:02.806Z,59.93
2022-09-26T07:07:42.088Z,59.73
2022-09-26T07:10:16.165Z,59.62
2022-09-26T07:12:59.229Z,59.46
2022-09-26T07:15:31.340Z,59.06
2022-09-26T07:18:04.853Z,59.25
2022-09-26T07:20:46.844Z,58.95
2022-09-26T07:23:33.881Z,58.53
2022-09-26T07:26:03.218Z,58.73
2022-09-26T07:28:31.898Z,58.46
2022-09-26T07:31:01.620Z,58.59
2022-09-26T07:33:43.825Z,57.95
2022-09-26T07:36:13.630Z,58.53
2022-09-26T07:38:44.024Z,58.48
2022-09-26T07:41:12.532Z,58.77
2022-09-26T07:44:40.879Z,58.67
2022-09-26T07:46:49.425Z,58.66
2022-09-26T07:49:36.174Z,58.45
2022-09-26T07:52:24.043Z,57.34
2022-09-26T07:55:28.313Z,57.70
2022-09-26T07:57:59.629Z,57.17
2022-09-26T08:00:44.667Z,57.29
2022-09-26T08:03:30.672Z,57.02
2022-09-26T08:06:03.175Z,56.62
2022-09-26T08:08:31.836Z,56.73
2022-09-26T08:11:20.575Z,55.09
2022-09-26T08:14:08.303Z,56.15
2022-09-26T08:16:49.600Z,55.60
2022-09-26T08:19:17.972Z,54.31
2022-09-26T08:21:46.773Z,55.03
2022-09-26T08:24:15.087Z,55.00
2022-09-26T08:27:14.337Z,53.65
2022-09-26T08:29:49.462Z,52.41
2022-09-26T08:32:20.098Z,52.87
2022-09-26T08:34:49.381Z,53.51
2022-09-26T08:37:46.644Z,51.76
2022-09-26T08:40:56.154Z,52.29
2022-09-26T08:43:58.179Z,51.24
2022-09-26T08:46:50.587Z,51.46
2022-09-26T08:49:57.054Z,51.26
2022-09-26T08:52:33.474Z,51.25
2022-09-26T08:55:08.191Z,50.84
2022-09-26T08:57:59.089Z,51.27
2022-09-26T09:00:31.448Z,50.77
2022-09-26T09:03:12.221Z,50.63
2022-09-26T09:05:46.936Z,50.41
2022-09-26T09:08:24.992Z,50.21
2022-09-26T09:11:43.267Z,50.50
2022-09-26T09:14:33.686Z,51.58
2022-09-26T09:17:52.949Z,51.11
2022-09-26T09:20:47.609Z,50.70
2022-09-26T09:24:07.598Z,51.02
2022-09-26T09:30:15.299Z,48.35
2022-09-26T09:33:19.856Z,49.43
2022-09-26T09:36:07.567Z,49.21
2022-09-26T09:38:48.174Z,45.94
2022-09-26T09:41:45.635Z,43.33
2022-09-26T09:44:58.150Z,43.00
2022-09-26T09:47:28.248Z,44.47
2022-09-26T09:49:57.854Z,45.62
2022-09-26T09:52:58.886Z,44.40
2022-09-26T09:55:43.098Z,44.07
2022-09-26T09:58:37.070Z,43.81
2022-09-26T10:01:21.871Z,43.47
2022-09-26T10:04:07.076Z,43.87
2022-09-26T10:06:45.669Z,43.98
2022-09-26T10:09:35.713Z,44.02
2022-09-26T10:12:39.465Z,44.16
2022-09-26T10:15:27.604Z,43.83
2022-09-26T10:18:26.986Z,43.04
2022-09-26T10:21:22.648Z,42.82
2022-09-26T10:23:52.498Z,41.79
2022-09-26T10:26:39.748Z,41.87
2022-09-26T10:29:38.614Z,41.24
2022-09-26T10:32:09.763Z,41.80
2022-09-26T10:34:40.366Z,42.03
2022-09-26T10:37:30.080Z,42.41
2022-09-26T10:40:40.920Z,43.04
2022-09-26T10:43:34.941Z,42.30
2022-09-26T10:46:23.772Z,43.23
2022-09-26T10:49:51.400Z,42.26
2022-09-26T10:53:01.553Z,42.10
2022-09-26T10:55:39.787Z,42.80
2022-09-26T10:58:15.393Z,44.17
2022-09-26T11:00:45.469Z,43.22
2022-09-26T11:03:28.494Z,43.24
2022-09-26T11:06:40.006Z,44.01
2022-09-26T11:09:27.529Z,43.11
2022-09-26T11:12:25.903Z,42.51
2022-09-26T11:15:00.873Z,42.85
2022-09-26T11:17:48.537Z,43.76
2022-09-26T11:20:33.097Z,42.00
2022-09-26T11:23:07.976Z,41.61
2022-09-26T11:26:10.596Z,41.94
2022-09-26T11:28:45.492Z,43.20
2022-09-26T11:31:52.127Z,43.09
2022-09-26T11:34:54.501Z,43.50
2022-09-26T11:38:05.834Z,43.86
2022-09-26T11:41:07.527Z,41.55
2022-09-26T11:44:10.443Z,42.04
2022-09-26T11:47:38.631Z,41.70
2022-09-26T11:50:29.761Z,40.79
2022-09-26T11:53:16.016Z,40.61
2022-09-26T11:55:57.224Z,41.58
2022-09-26T11:58:55.202Z,40.86
2022-09-26T12:02:00.263Z,39.80
2022-09-26T12:04:37.645Z,41.97
2022-09-26T12:07:11.910Z,39.91
2022-09-26T12:09:50.565Z,40.90
2022-09-26T12:12:38.225Z,40.04
2022-09-26T12:15:56.351Z,39.97
2022-09-26T12:18:43.764Z,40.63
2022-09-26T12:21:22.230Z,40.89
2022-09-26T12:23:53.918Z,40.18
2022-09-26T12:27:05.980Z,40.80
2022-09-26T12:29:55.677Z,41.31
2022-09-26T12:33:04.922Z,41.69
2022-09-26T12:35:38.429Z,42.68
2022-09-26T12:38:27.337Z,41.67
2022-09-26T12:41:25.242Z,41.90
2022-09-26T12:44:34.620Z,42.51
2022-09-26T12:47:11.844Z,42.88
2022-09-26T12:50:00.414Z,43.37
2022-09-26T12:53:02.287Z,43.53
2022-09-26T12:55:57.334Z,43.20
2022-09-26T12:58:29.350Z,42.71
2022-09-26T13:01:20.514Z,43.22
2022-09-26T13:04:07.036Z,42.41
2022-09-26T13:07:17.598Z,43.73
2022-09-26T13:10:08.081Z,43.97
2022-09-26T13:12:53.746Z,44.02
2022-09-26T13:15:26.718Z,43.05
2022-09-26T13:18:09.542Z,43.33
2022-09-26T13:20:43.540Z,43.35
2022-09-26T13:23:27.653Z,43.75
2022-09-26T13:26:02.273Z,44.09
2022-09-26T13:28:33.975Z,43.02
2022-09-26T13:31:19.146Z,42.31
2022-09-26T13:34:05.528Z,43.46
2022-09-26T13:36:34.654Z,41.83
2022-09-26T13:39:17.818Z,42.67
2022-09-26T13:42:10.100Z,42.21
2022-09-26T13:45:00.544Z,41.54
2022-09-26T13:47:40.854Z,41.75
2022-09-26T13:50:26.863Z,42.53
2022-09-26T13:53:18.857Z,43.15
2022-09-26T13:56:36.451Z,42.95
2022-09-26T13:59:18.198Z,43.30
2022-09-26T14:02:28.538Z,43.97
2022-09-26T14:05:02.518Z,44.10
2022-09-26T14:08:10.728Z,43.25
2022-09-26T14:10:40.973Z,43.91
2022-09-26T14:13:22.070Z,44.19
2022-09-26T14:15:59.731Z,44.23
2022-09-26T14:18:45.176Z,44.93
2022-09-26T14:21:23.849Z,44.75
2022-09-26T14:24:20.919Z,43.99
2022-09-26T14:26:57.702Z,43.53
2022-09-26T14:29:31.373Z,43.88
2022-09-26T14:32:05.762Z,43.39
2022-09-26T14:34:56.153Z,43.75
2022-09-26T14:37:24.409Z,43.41
2022-09-26T14:40:04.389Z,43.25
2022-09-26T14:42:39.800Z,43.75
2022-09-26T14:45:20.453Z,44.09
2022-09-26T14:48:23.154Z,44.26
2022-09-26T14:51:18.778Z,44.28
2022-09-26T14:54:19.426Z,43.81
2022-09-26T14:56:49.235Z,44.08
2022-09-26T14:59:17.407Z,44.42
2022-09-26T15:01:46.235Z,44.66
2022-09-26T15:04:20.839Z,44.53
2022-09-26T15:06:53.094Z,44.43
2022-09-26T15:09:33.314Z,44.60
2022-09-26T15:12:08.213Z,44.90
2022-09-26T15:14:44.032Z,45.05
2022-09-26T15:17:30.029Z,45.11
2022-09-26T15:20:01.810Z,45.31
2022-09-26T15:22:31.061Z,44.90
2022-09-26T15:25:30.181Z,45.47
2022-09-26T15:27:59.402Z,45.26
2022-09-26T15:30:37.540Z,45.39
2022-09-26T15:33:07.528Z,45.33
2022-09-26T15:35:35.779Z,45.80
2022-09-26T15:38:10.257Z,45.84
2022-09-26T15:40:38.576Z,45.64
2022-09-26T15:43:09.842Z,46.08
2022-09-26T15:45:47.201Z,46.15
2022-09-26T15:48:20.098Z,46.09
2022-09-26T15:50:48.658Z,45.88
2022-09-26T15:53:37.933Z,45.96
2022-09-26T15:56:24.426Z,46.20
2022-09-26T15:59:01.157Z,46.32
2022-09-26T16:01:31.003Z,46.42
2022-09-26T16:04:13.626Z,46.48
2022-09-26T16:06:52.869Z,46.12
2022-09-26T16:09:32.399Z,46.35
2022-09-26T16:12:03.369Z,46.38
2022-09-26T16:15:03.026Z,46.62
2022-09-26T16:17:32.614Z,46.57
2022-09-26T16:20:09.873Z,46.74
2022-09-26T16:22:40.419Z,46.45
2022-09-26T16:25:27.003Z,46.57
2022-09-26T16:28:01.132Z,46.49
2022-09-26T16:30:30.140Z,46.72
2022-09-26T16:33:07.664Z,46.67
2022-09-26T16:35:37.821Z,46.58
2022-09-26T16:38:24.453Z,46.67
2022-09-26T16:40:54.939Z,46.81
2022-09-26T16:43:28.622Z,46.73
2022-09-26T16:46:18.576Z,46.80
2022-09-26T16:48:49.814Z,47.02
2022-09-26T16:51:22.397Z,47.08
2022-09-26T16:54:22.497Z,47.31
2022-09-26T16:56:53.806Z,47.25
2022-09-26T16:59:24.203Z,47.22
2022-09-26T17:01:55.203Z,47.29
2022-09-26T17:04:34.773Z,47.36
2022-09-26T17:07:09.731Z,47.61
2022-09-26T17:09:41.460Z,47.50
2022-09-26T17:12:22.133Z,47.52
2022-09-26T17:14:55.365Z,47.35
2022-09-26T17:17:28.409Z,47.36
2022-09-26T17:19:59.421Z,47.55
2022-09-26T17:22:28.750Z,47.50
2022-09-26T17:24:58.357Z,47.72
2022-09-26T17:27:32.772Z,47.98
2022-09-26T17:30:02.944Z,48.06
2022-09-26T17:32:37.009Z,48.14
2022-09-26T17:35:28.222Z,48.08
2022-09-26T17:37:56.825Z,48.14
2022-09-26T17:40:27.751Z,48.36
2022-09-26T17:42:57.674Z,48.27
2022-09-26T17:45:34.278Z,48.33
2022-09-26T17:48:05.657Z,48.55
2022-09-26T17:50:35.545Z,48.65
2022-09-26T17:53:04.316Z,48.49
2022-09-26T17:55:33.570Z,48.50
2022-09-26T17:58:02.574Z,48.52
2022-09-26T18:00:34.126Z,48.51
2022-09-26T18:03:04.440Z,48.48
2022-09-26T18:05:36.927Z,48.62
2022-09-26T18:08:12.718Z,48.73
2022-09-26T18:10:46.405Z,48.90
2022-09-26T18:13:15.796Z,48.99
2022-09-26T18:15:44.331Z,48.99
2022-09-26T18:18:18.486Z,49.00
2022-09-26T18:20:48.500Z,49.04
2022-09-26T18:23:23.343Z,49.13
2022-09-26T18:25:54.564Z,49.16
2022-09-26T18:28:23.784Z,49.11
2022-09-26T18:30:57.999Z,49.25
2022-09-26T18:33:29.354Z,49.52
2022-09-26T18:35:58.118Z,49.76
2022-09-26T18:38:26.318Z,49.97
2022-09-26T18:40:58.562Z,50.31
2022-09-26T18:43:32.067Z,50.58
2022-09-26T18:46:00.691Z,50.60
2022-09-26T18:48:33.033Z,50.61
2022-09-26T18:51:01.411Z,51.03
2022-09-26T18:53:35.018Z,51.12
2022-09-26T18:56:30.519Z,51.25
2022-09-26T18:58:59.315Z,51.35
2022-09-26T19:01:38.086Z,51.34
2022-09-26T19:04:12.167Z,51.60
2022-09-26T19:06:45.317Z,51.68
2022-09-26T19:09:21.073Z,51.74
2022-09-26T19:11:49.455Z,51.67
2022-09-26T19:14:26.237Z,51.80
2022-09-26T19:16:55.117Z,51.98
2022-09-26T19:19:24.129Z,51.95
2022-09-26T19:21:57.301Z,52.06
2022-09-26T19:24:35.938Z,52.28
2022-09-26T19:27:20.620Z,52.39
2022-09-26T19:29:59.404Z,52.28
2022-09-26T19:32:37.813Z,52.45
2022-09-26T19:35:25.136Z,52.48
2022-09-26T19:37:53.791Z,52.64
2022-09-26T19:40:22.858Z,52.60
2022-09-26T19:42:52.031Z,52.45
2022-09-26T19:45:20.906Z,52.22
2022-09-26T19:47:54.657Z,52.27
2022-09-26T19:50:27.085Z,52.11
2022-09-26T19:52:58.737Z,52.14
2022-09-26T19:55:29.265Z,52.12
2022-09-26T19:58:02.953Z,52.29
2022-09-26T20:00:37.303Z,53.51
2022-09-26T20:03:05.830Z,53.86
2022-09-26T20:05:34.601Z,53.29
2022-09-26T20:08:02.952Z,53.00
2022-09-26T20:10:31.137Z,52.86
2022-09-26T20:12:59.489Z,53.25
2022-09-26T20:15:28.016Z,53.35
2022-09-26T20:17:58.614Z,52.90
2022-09-26T20:20:27.808Z,52.92
2022-09-26T20:22:56.781Z,53.59
2022-09-26T20:25:27.437Z,53.01
2022-09-26T20:27:56.774Z,53.12
2022-09-26T20:30:44.711Z,54.28
2022-09-26T20:33:13.648Z,53.19
2022-09-26T20:35:46.022Z,53.04
2022-09-26T20:38:26.115Z,53.01
2022-09-26T20:41:16.614Z,53.01
2022-09-26T20:43:49.548Z,53.12
2022-09-26T20:46:19.839Z,53.21
2022-09-26T20:48:49.396Z,53.49
2022-09-26T20:51:24.467Z,53.63
2022-09-26T20:53:52.902Z,53.70
2022-09-26T20:56:21.510Z,53.77
2022-09-26T20:58:49.976Z,53.84
2022-09-26T21:01:19.790Z,53.91
2022-09-26T21:03:50.459Z,54.05
2022-09-26T21:06:25.155Z,54.15
2022-09-26T21:08:53.529Z,54.42
2022-09-26T21:11:22.302Z,54.75
2022-09-26T21:13:50.734Z,54.57
2022-09-26T21:16:20.877Z,54.50
2022-09-26T21:18:51.632Z,55.21
2022-09-26T21:21:26.052Z,55.25
2022-09-26T21:24:19.602Z,55.70
2022-09-26T21:26:50.988Z,55.33
2022-09-26T21:29:19.262Z,55.33
2022-09-26T21:31:53.286Z,55.63
2022-09-26T21:34:23.889Z,56.13
2022-09-26T21:36:55.771Z,57.34
2022-09-26T21:39:25.041Z,57.10
2022-09-26T21:41:56.013Z,56.85
2022-09-26T21:44:36.857Z,56.76
2022-09-26T21:47:05.281Z,57.82
2022-09-26T21:49:33.608Z,57.07
2022-09-26T21:52:24.641Z,56.99
2022-09-26T21:54:53.100Z,57.44
2022-09-26T21:57:25.426Z,58.87
2022-09-26T21:59:53.889Z,58.43
2022-09-26T22:02:22.178Z,58.27
2022-09-26T22:04:52.657Z,58.36
2022-09-26T22:07:21.013Z,59.04
2022-09-26T22:09:49.329Z,57.85
2022-09-26T22:12:17.604Z,57.94
2022-09-26T22:14:45.986Z,58.14
2022-09-26T22:17:14.428Z,58.03
2022-09-26T22:19:42.771Z,58.37
2022-09-26T22:22:11.312Z,58.71
2022-09-26T22:24:40.111Z,59.08
2022-09-26T22:27:08.321Z,59.97
2022-09-26T22:29:36.606Z,62.43
2022-09-26T22:32:05.112Z,63.78
2022-09-26T22:34:33.668Z,66.29
2022-09-26T22:37:02.003Z,69.01
2022-09-26T22:39:30.265Z,67.07
2022-09-26T22:41:58.849Z,64.92
2022-09-26T22:44:27.343Z,67.09
2022-09-26T22:46:55.510Z,67.11
2022-09-26T22:49:24.489Z,69.17
2022-09-26T22:51:52.977Z,69.07
2022-09-26T22:54:21.124Z,71.11
2022-09-26T22:56:49.439Z,71.73
2022-09-26T22:59:17.790Z,71.91
2022-09-26T23:01:46.049Z,68.70
2022-09-26T23:04:14.369Z,67.22
2022-09-26T23:06:42.564Z,67.06
2022-09-26T23:09:10.819Z,68.73
2022-09-26T23:11:39.095Z,71.78
2022-09-26T23:14:07.635Z,73.41
2022-09-26T23:16:36.087Z,72.35
2022-09-26T23:19:05.033Z,71.61
2022-09-26T23:21:33.305Z,72.19
2022-09-26T23:24:01.899Z,72.69
2022-09-26T23:26:32.116Z,71.64
2022-09-26T23:29:00.811Z,70.98
2022-09-26T23:31:29.472Z,69.95
2022-09-26T23:33:57.982Z,70.26
2022-09-26T23:36:26.442Z,70.98
2022-09-26T23:38:57.337Z,71.20
2022-09-26T23:41:25.509Z,71.83
2022-09-26T23:43:53.717Z,72.41
2022-09-26T23:46:22.024Z,72.53
2022-09-26T23:48:50.237Z,72.37
2022-09-26T23:51:18.462Z,72.96
2022-09-26T23:53:47.983Z,73.45
2022-09-26T23:56:16.870Z,74.28
2022-09-26T23:58:45.246Z,75.09
